sensor_id;sensor_type;location;lat;lon;timestamp;temperature;humidity
9668;DHT22;4872;48.316;10.650;2023-05-07T04:06:08;11.70;99.90
9668;DHT22;4872;48.316;10.650;2023-05-07T04:08:36;11.70;99.90
9668;DHT22;4872;48.316;10.650;2023-05-07T04:11:02;12.00;99.90
9668;DHT22;4872;48.316;10.650;2023-05-07T04:13:29;11.70;99.90
9668;DHT22;4872;48.316;10.650;2023-05-07T04:15:57;12.60;99.90
9668;DHT22;4872;48.316;10.650;2023-05-07T04:18:24;12.10;99.90
9668;DHT22;4872;48.316;10.650;2023-05-07T04:20:50;11.70;99.90
9668;DHT22;4872;48.316;10.650;2023-05-07T04:23:19;11.80;99.90
9668;DHT22;4872;48.316;10.650;2023-05-07T04:25:45;11.80;99.90
9668;DHT22;4872;48.316;10.650;2023-05-07T04:28:12;11.80;99.90
9668;DHT22;4872;48.316;10.650;2023-05-07T04:30:39;11.70;99.90
9668;DHT22;4872;48.316;10.650;2023-05-07T04:33:06;11.80;99.90
9668;DHT22;4872;48.316;10.650;2023-05-07T04:35:33;11.80;99.90
9668;DHT22;4872;48.316;10.650;2023-05-07T04:38:01;11.80;99.90
9668;DHT22;4872;48.316;10.650;2023-05-07T04:40:29;11.80;99.90
9668;DHT22;4872;48.316;10.650;2023-05-07T04:42:56;11.90;99.90
9668;DHT22;4872;48.316;10.650;2023-05-07T04:45:23;12.50;99.90
9668;DHT22;4872;48.316;10.650;2023-05-07T04:47:49;11.90;99.90
9668;DHT22;4872;48.316;10.650;2023-05-07T04:50:16;12.40;99.90
9668;DHT22;4872;48.316;10.650;2023-05-07T04:52:45;12.00;99.90
9668;DHT22;4872;48.316;10.650;2023-05-07T04:55:12;12.10;99.90
9668;DHT22;4872;48.316;10.650;2023-05-07T04:57:40;12.10;99.90
9668;DHT22;4872;48.316;10.650;2023-05-07T05:00:07;12.10;99.90
9668;DHT22;4872;48.316;10.650;2023-05-07T05:02:35;12.10;99.90
9668;DHT22;4872;48.316;10.650;2023-05-07T05:05:02;12.20;99.90
9668;DHT22;4872;48.316;10.650;2023-05-07T05:07:29;12.20;99.90
9668;DHT22;4872;48.316;10.650;2023-05-07T05:09:57;13.50;99.90
9668;DHT22;4872;48.316;10.650;2023-05-07T05:12:24;12.40;99.90
9668;DHT22;4872;48.316;10.650;2023-05-07T05:14:52;12.30;99.90
9668;DHT22;4872;48.316;10.650;2023-05-07T05:17:18;12.70;99.90
9668;DHT22;4872;48.316;10.650;2023-05-07T05:19:45;13.30;99.90
9668;DHT22;4872;48.316;10.650;2023-05-07T05:22:12;12.50;99.90
9668;DHT22;4872;48.316;10.650;2023-05-07T05:24:39;12.60;99.90
9668;DHT22;4872;48.316;10.650;2023-05-07T05:27:05;13.20;99.90
9668;DHT22;4872;48.316;10.650;2023-05-07T05:29:32;12.70;99.90
9668;DHT22;4872;48.316;10.650;2023-05-07T05:32:00;13.80;99.90
9668;DHT22;4872;48.316;10.650;2023-05-07T05:34:27;12.90;99.90
9668;DHT22;4872;48.316;10.650;2023-05-07T05:36:54;13.00;99.90
9668;DHT22;4872;48.316;10.650;2023-05-07T05:39:20;13.10;99.90
9668;DHT22;4872;48.316;10.650;2023-05-07T05:41:48;13.20;99.90
9668;DHT22;4872;48.316;10.650;2023-05-07T05:44:15;13.20;99.90
9668;DHT22;4872;48.316;10.650;2023-05-07T05:46:42;13.30;99.90
9668;DHT22;4872;48.316;10.650;2023-05-07T05:49:10;13.80;99.90
9668;DHT22;4872;48.316;10.650;2023-05-07T05:51:37;13.50;99.90
9668;DHT22;4872;48.316;10.650;2023-05-07T05:54:04;14.30;99.90
9668;DHT22;4872;48.316;10.650;2023-05-07T05:56:30;13.70;99.90
9668;DHT22;4872;48.316;10.650;2023-05-07T05:58:57;13.90;99.90
9668;DHT22;4872;48.316;10.650;2023-05-07T06:01:24;14.00;99.90
9668;DHT22;4872;48.316;10.650;2023-05-07T06:03:51;14.70;99.90
9668;DHT22;4872;48.316;10.650;2023-05-07T06:06:19;14.20;99.90
9668;DHT22;4872;48.316;10.650;2023-05-07T06:08:46;14.30;99.90
9668;DHT22;4872;48.316;10.650;2023-05-07T06:11:13;14.40;99.90
9668;DHT22;4872;48.316;10.650;2023-05-07T06:13:40;14.50;99.90
9668;DHT22;4872;48.316;10.650;2023-05-07T06:16:07;14.90;99.90
9668;DHT22;4872;48.316;10.650;2023-05-07T06:18:33;15.10;99.90
9668;DHT22;4872;48.316;10.650;2023-05-07T06:21:01;14.70;99.90
9668;DHT22;4872;48.316;10.650;2023-05-07T06:23:29;14.90;99.90
9668;DHT22;4872;48.316;10.650;2023-05-07T06:25:56;15.00;99.90
9668;DHT22;4872;48.316;10.650;2023-05-07T06:28:22;15.10;99.90
9668;DHT22;4872;48.316;10.650;2023-05-07T06:30:49;15.30;99.90
9668;DHT22;4872;48.316;10.650;2023-05-07T06:33:16;15.40;99.90
9668;DHT22;4872;48.316;10.650;2023-05-07T06:35:43;15.90;99.90
9668;DHT22;4872;48.316;10.650;2023-05-07T06:38:09;16.50;99.90
9668;DHT22;4872;48.316;10.650;2023-05-07T06:40:39;15.90;99.90
9668;DHT22;4872;48.316;10.650;2023-05-07T06:43:05;16.00;99.90
9668;DHT22;4872;48.316;10.650;2023-05-07T06:45:32;16.10;99.90
9668;DHT22;4872;48.316;10.650;2023-05-07T06:47:59;16.20;99.90
9668;DHT22;4872;48.316;10.650;2023-05-07T06:50:25;16.40;99.90
9668;DHT22;4872;48.316;10.650;2023-05-07T06:52:52;16.40;99.90
9668;DHT22;4872;48.316;10.650;2023-05-07T06:55:19;16.90;99.90
9668;DHT22;4872;48.316;10.650;2023-05-07T06:57:47;16.70;99.90
9668;DHT22;4872;48.316;10.650;2023-05-07T07:00:15;18.20;99.90
9668;DHT22;4872;48.316;10.650;2023-05-07T07:02:41;16.90;99.90
9668;DHT22;4872;48.316;10.650;2023-05-07T07:05:09;17.10;99.90
9668;DHT22;4872;48.316;10.650;2023-05-07T07:07:35;17.20;99.90
9668;DHT22;4872;48.316;10.650;2023-05-07T07:10:02;17.30;99.90
9668;DHT22;4872;48.316;10.650;2023-05-07T07:12:30;17.40;99.90
9668;DHT22;4872;48.316;10.650;2023-05-07T07:14:58;17.50;99.90
9668;DHT22;4872;48.316;10.650;2023-05-07T07:17:25;17.50;99.90
9668;DHT22;4872;48.316;10.650;2023-05-07T07:19:51;17.60;99.90
9668;DHT22;4872;48.316;10.650;2023-05-07T07:22:18;17.70;99.90
9668;DHT22;4872;48.316;10.650;2023-05-07T07:24:45;17.80;99.90
9668;DHT22;4872;48.316;10.650;2023-05-07T07:27:11;17.80;99.90
9668;DHT22;4872;48.316;10.650;2023-05-07T07:29:38;17.90;99.90
9668;DHT22;4872;48.316;10.650;2023-05-07T07:32:06;18.00;99.90
9668;DHT22;4872;48.316;10.650;2023-05-07T07:34:33;18.00;99.90
9668;DHT22;4872;48.316;10.650;2023-05-07T07:37:00;18.10;99.90
9668;DHT22;4872;48.316;10.650;2023-05-07T07:39:30;18.20;99.90
9668;DHT22;4872;48.316;10.650;2023-05-07T07:41:57;18.30;99.90
9668;DHT22;4872;48.316;10.650;2023-05-07T07:44:24;18.40;99.90
9668;DHT22;4872;48.316;10.650;2023-05-07T07:46:51;18.40;99.90
9668;DHT22;4872;48.316;10.650;2023-05-07T07:49:19;19.30;99.90
9668;DHT22;4872;48.316;10.650;2023-05-07T07:51:45;18.60;99.90
9668;DHT22;4872;48.316;10.650;2023-05-07T07:54:12;18.70;99.90
9668;DHT22;4872;48.316;10.650;2023-05-07T07:56:39;18.80;99.90
9668;DHT22;4872;48.316;10.650;2023-05-07T07:59:05;18.80;99.90
9668;DHT22;4872;48.316;10.650;2023-05-07T08:01:32;18.90;99.90
9668;DHT22;4872;48.316;10.650;2023-05-07T08:04:00;18.90;99.90
9668;DHT22;4872;48.316;10.650;2023-05-07T08:06:29;19.10;99.90
9668;DHT22;4872;48.316;10.650;2023-05-07T08:08:56;19.20;99.90
9668;DHT22;4872;48.316;10.650;2023-05-07T08:11:23;19.30;99.30
9668;DHT22;4872;48.316;10.650;2023-05-07T08:13:50;19.40;99.10
9668;DHT22;4872;48.316;10.650;2023-05-07T08:16:17;19.50;99.40
9668;DHT22;4872;48.316;10.650;2023-05-07T08:18:44;19.60;99.50
9668;DHT22;4872;48.316;10.650;2023-05-07T08:21:11;19.70;99.00
9668;DHT22;4872;48.316;10.650;2023-05-07T08:23:39;19.70;98.70
9668;DHT22;4872;48.316;10.650;2023-05-07T08:26:05;19.70;99.00
9668;DHT22;4872;48.316;10.650;2023-05-07T08:28:33;19.80;99.10
9668;DHT22;4872;48.316;10.650;2023-05-07T08:31:00;19.80;99.00
9668;DHT22;4872;48.316;10.650;2023-05-07T08:33:27;19.80;98.30
9668;DHT22;4872;48.316;10.650;2023-05-07T08:35:53;19.90;98.40
9668;DHT22;4872;48.316;10.650;2023-05-07T08:38:20;19.90;98.40
9668;DHT22;4872;48.316;10.650;2023-05-07T08:40:48;20.00;97.80
9668;DHT22;4872;48.316;10.650;2023-05-07T08:43:15;21.20;98.00
9668;DHT22;4872;48.316;10.650;2023-05-07T08:45:44;20.10;98.00
9668;DHT22;4872;48.316;10.650;2023-05-07T08:48:15;20.10;98.00
9668;DHT22;4872;48.316;10.650;2023-05-07T08:50:42;20.20;98.00
9668;DHT22;4872;48.316;10.650;2023-05-07T08:53:09;20.30;98.10
9668;DHT22;4872;48.316;10.650;2023-05-07T08:55:35;20.40;97.20
9668;DHT22;4872;48.316;10.650;2023-05-07T08:58:04;20.40;97.20
9668;DHT22;4872;48.316;10.650;2023-05-07T09:00:30;21.10;97.30
9668;DHT22;4872;48.316;10.650;2023-05-07T09:02:57;21.70;97.50
9668;DHT22;4872;48.316;10.650;2023-05-07T09:05:24;20.60;97.60
9668;DHT22;4872;48.316;10.650;2023-05-07T09:07:50;20.70;97.60
9668;DHT22;4872;48.316;10.650;2023-05-07T09:10:17;20.90;97.50
9668;DHT22;4872;48.316;10.650;2023-05-07T09:12:46;20.90;97.10
9668;DHT22;4872;48.316;10.650;2023-05-07T09:15:14;20.90;96.30
9668;DHT22;4872;48.316;10.650;2023-05-07T09:17:41;20.90;96.30
9668;DHT22;4872;48.316;10.650;2023-05-07T09:20:10;21.00;96.60
9668;DHT22;4872;48.316;10.650;2023-05-07T09:22:37;21.00;96.40
9668;DHT22;4872;48.316;10.650;2023-05-07T09:25:04;21.00;96.30
9668;DHT22;4872;48.316;10.650;2023-05-07T09:27:31;21.10;96.80
9668;DHT22;4872;48.316;10.650;2023-05-07T09:29:58;21.70;96.30
9668;DHT22;4872;48.316;10.650;2023-05-07T09:32:26;22.20;96.20
9668;DHT22;4872;48.316;10.650;2023-05-07T09:34:53;21.80;96.40
9668;DHT22;4872;48.316;10.650;2023-05-07T09:37:20;21.40;96.70
9668;DHT22;4872;48.316;10.650;2023-05-07T09:39:48;21.70;96.50
9668;DHT22;4872;48.316;10.650;2023-05-07T09:42:15;21.50;95.70
9668;DHT22;4872;48.316;10.650;2023-05-07T09:44:43;21.60;95.90
9668;DHT22;4872;48.316;10.650;2023-05-07T09:47:10;21.70;95.30
9668;DHT22;4872;48.316;10.650;2023-05-07T09:49:40;21.70;94.50
9668;DHT22;4872;48.316;10.650;2023-05-07T09:52:08;22.60;93.60
9668;DHT22;4872;48.316;10.650;2023-05-07T09:54:36;22.30;93.20
9668;DHT22;4872;48.316;10.650;2023-05-07T09:57:04;21.80;93.70
9668;DHT22;4872;48.316;10.650;2023-05-07T09:59:32;21.90;94.00
9668;DHT22;4872;48.316;10.650;2023-05-07T10:02:00;22.00;93.30
9668;DHT22;4872;48.316;10.650;2023-05-07T10:04:27;21.90;92.90
9668;DHT22;4872;48.316;10.650;2023-05-07T10:06:56;22.20;92.70
9668;DHT22;4872;48.316;10.650;2023-05-07T10:09:23;22.30;92.10
9668;DHT22;4872;48.316;10.650;2023-05-07T10:11:52;22.30;91.70
9668;DHT22;4872;48.316;10.650;2023-05-07T10:14:20;22.30;92.30
9668;DHT22;4872;48.316;10.650;2023-05-07T10:16:48;22.50;91.70
9668;DHT22;4872;48.316;10.650;2023-05-07T10:19:14;22.60;93.10
9668;DHT22;4872;48.316;10.650;2023-05-07T10:21:44;22.50;91.80
9668;DHT22;4872;48.316;10.650;2023-05-07T10:24:20;22.70;92.30
9668;DHT22;4872;48.316;10.650;2023-05-07T10:26:50;22.80;91.10
9668;DHT22;4872;48.316;10.650;2023-05-07T10:29:21;22.80;90.40
9668;DHT22;4872;48.316;10.650;2023-05-07T10:31:57;22.80;86.90
9668;DHT22;4872;48.316;10.650;2023-05-07T10:34:30;22.80;88.00
9668;DHT22;4872;48.316;10.650;2023-05-07T10:36:59;23.10;90.90
9668;DHT22;4872;48.316;10.650;2023-05-07T10:39:28;23.40;86.60
9668;DHT22;4872;48.316;10.650;2023-05-07T10:41:54;22.80;86.10
9668;DHT22;4872;48.316;10.650;2023-05-07T10:44:25;23.70;86.30
9668;DHT22;4872;48.316;10.650;2023-05-07T10:47:09;22.80;85.20
9668;DHT22;4872;48.316;10.650;2023-05-07T10:49:37;22.80;86.70
9668;DHT22;4872;48.316;10.650;2023-05-07T10:52:24;22.90;85.90
9668;DHT22;4872;48.316;10.650;2023-05-07T10:55:20;23.00;87.90
9668;DHT22;4872;48.316;10.650;2023-05-07T10:57:47;22.90;85.30
9668;DHT22;4872;48.316;10.650;2023-05-07T11:00:42;23.00;85.80
9668;DHT22;4872;48.316;10.650;2023-05-07T11:03:09;22.90;85.30
9668;DHT22;4872;48.316;10.650;2023-05-07T11:05:37;22.80;84.50
9668;DHT22;4872;48.316;10.650;2023-05-07T11:08:05;22.70;83.40
9668;DHT22;4872;48.316;10.650;2023-05-07T11:10:50;22.70;82.90
9668;DHT22;4872;48.316;10.650;2023-05-07T11:13:18;22.70;85.20
9668;DHT22;4872;48.316;10.650;2023-05-07T11:15:46;22.70;84.90
9668;DHT22;4872;48.316;10.650;2023-05-07T11:18:13;22.80;83.00
9668;DHT22;4872;48.316;10.650;2023-05-07T11:20:52;22.70;82.30
9668;DHT22;4872;48.316;10.650;2023-05-07T11:23:57;22.80;83.50
9668;DHT22;4872;48.316;10.650;2023-05-07T11:26:26;22.80;85.30
9668;DHT22;4872;48.316;10.650;2023-05-07T11:28:53;22.80;82.80
9668;DHT22;4872;48.316;10.650;2023-05-07T11:31:22;22.80;83.70
9668;DHT22;4872;48.316;10.650;2023-05-07T11:33:50;22.80;84.30
9668;DHT22;4872;48.316;10.650;2023-05-07T11:36:17;22.90;84.10
9668;DHT22;4872;48.316;10.650;2023-05-07T11:38:45;23.00;84.30
9668;DHT22;4872;48.316;10.650;2023-05-07T11:41:11;23.10;83.10
9668;DHT22;4872;48.316;10.650;2023-05-07T11:43:53;23.10;84.00
9668;DHT22;4872;48.316;10.650;2023-05-07T11:46:21;23.10;85.50
9668;DHT22;4872;48.316;10.650;2023-05-07T11:48:48;23.20;83.60
9668;DHT22;4872;48.316;10.650;2023-05-07T11:51:19;23.30;83.50
9668;DHT22;4872;48.316;10.650;2023-05-07T11:53:45;23.20;84.30
9668;DHT22;4872;48.316;10.650;2023-05-07T11:56:14;23.70;83.90
9668;DHT22;4872;48.316;10.650;2023-05-07T11:58:43;23.50;83.00
9668;DHT22;4872;48.316;10.650;2023-05-07T12:01:12;23.80;81.80
9668;DHT22;4872;48.316;10.650;2023-05-07T12:03:41;24.40;83.90
9668;DHT22;4872;48.316;10.650;2023-05-07T12:06:09;24.50;83.80
9668;DHT22;4872;48.316;10.650;2023-05-07T12:08:37;23.50;82.10
9668;DHT22;4872;48.316;10.650;2023-05-07T12:11:07;24.50;83.60
9668;DHT22;4872;48.316;10.650;2023-05-07T12:13:34;23.50;82.40
9668;DHT22;4872;48.316;10.650;2023-05-07T12:16:02;23.50;83.60
9668;DHT22;4872;48.316;10.650;2023-05-07T12:18:29;23.60;81.00
9668;DHT22;4872;48.316;10.650;2023-05-07T12:20:57;23.70;82.10
9668;DHT22;4872;48.316;10.650;2023-05-07T12:23:25;23.80;82.90
9668;DHT22;4872;48.316;10.650;2023-05-07T12:25:52;24.40;82.30
9668;DHT22;4872;48.316;10.650;2023-05-07T12:28:19;24.00;80.20
9668;DHT22;4872;48.316;10.650;2023-05-07T12:30:48;24.20;82.00
9668;DHT22;4872;48.316;10.650;2023-05-07T12:33:18;24.20;80.70
9668;DHT22;4872;48.316;10.650;2023-05-07T12:35:47;24.20;80.00
9668;DHT22;4872;48.316;10.650;2023-05-07T12:38:17;24.10;79.90
9668;DHT22;4872;48.316;10.650;2023-05-07T12:40:45;24.20;79.30
9668;DHT22;4872;48.316;10.650;2023-05-07T12:43:15;24.20;78.90
9668;DHT22;4872;48.316;10.650;2023-05-07T12:45:43;24.30;78.10
9668;DHT22;4872;48.316;10.650;2023-05-07T12:48:10;24.30;78.30
9668;DHT22;4872;48.316;10.650;2023-05-07T12:50:38;24.40;78.80
9668;DHT22;4872;48.316;10.650;2023-05-07T12:53:06;24.30;77.50
9668;DHT22;4872;48.316;10.650;2023-05-07T12:55:41;24.40;79.10
9668;DHT22;4872;48.316;10.650;2023-05-07T12:58:08;24.40;78.80
9668;DHT22;4872;48.316;10.650;2023-05-07T13:00:41;24.60;78.20
9668;DHT22;4872;48.316;10.650;2023-05-07T13:03:09;24.70;76.60
9668;DHT22;4872;48.316;10.650;2023-05-07T13:05:37;24.70;77.10
9668;DHT22;4872;48.316;10.650;2023-05-07T13:08:04;24.80;77.60
9668;DHT22;4872;48.316;10.650;2023-05-07T13:10:31;24.80;78.30
9668;DHT22;4872;48.316;10.650;2023-05-07T13:12:58;24.70;78.30
9668;DHT22;4872;48.316;10.650;2023-05-07T13:15:25;24.90;79.10
9668;DHT22;4872;48.316;10.650;2023-05-07T13:17:52;24.90;77.40
9668;DHT22;4872;48.316;10.650;2023-05-07T13:20:19;24.90;77.30
9668;DHT22;4872;48.316;10.650;2023-05-07T13:22:47;26.00;78.00
9668;DHT22;4872;48.316;10.650;2023-05-07T13:25:14;25.40;76.40
9668;DHT22;4872;48.316;10.650;2023-05-07T13:27:40;25.40;75.90
9668;DHT22;4872;48.316;10.650;2023-05-07T13:30:07;25.50;75.40
9668;DHT22;4872;48.316;10.650;2023-05-07T13:32:34;25.60;76.40
9668;DHT22;4872;48.316;10.650;2023-05-07T13:35:01;25.70;74.80
9668;DHT22;4872;48.316;10.650;2023-05-07T13:37:28;25.80;74.10
9668;DHT22;4872;48.316;10.650;2023-05-07T13:39:56;25.70;74.80
9668;DHT22;4872;48.316;10.650;2023-05-07T13:42:23;25.50;75.30
9668;DHT22;4872;48.316;10.650;2023-05-07T13:44:50;25.40;76.10
9668;DHT22;4872;48.316;10.650;2023-05-07T13:47:16;25.30;73.90
9668;DHT22;4872;48.316;10.650;2023-05-07T13:49:43;25.30;75.10
9668;DHT22;4872;48.316;10.650;2023-05-07T13:52:10;26.00;76.00
9668;DHT22;4872;48.316;10.650;2023-05-07T13:54:37;25.90;75.40
9668;DHT22;4872;48.316;10.650;2023-05-07T13:57:05;25.60;75.10
9668;DHT22;4872;48.316;10.650;2023-05-07T13:59:32;25.70;75.30
9668;DHT22;4872;48.316;10.650;2023-05-07T14:01:58;25.70;74.00
9668;DHT22;4872;48.316;10.650;2023-05-07T14:04:25;25.80;74.10
9668;DHT22;4872;48.316;10.650;2023-05-07T14:06:52;25.90;74.00
9668;DHT22;4872;48.316;10.650;2023-05-07T14:09:19;25.60;73.70
9668;DHT22;4872;48.316;10.650;2023-05-07T14:11:45;26.00;75.20
9668;DHT22;4872;48.316;10.650;2023-05-07T14:14:14;25.40;74.40
9668;DHT22;4872;48.316;10.650;2023-05-07T14:16:41;25.40;74.60
9668;DHT22;4872;48.316;10.650;2023-05-07T14:19:07;25.30;74.00
9668;DHT22;4872;48.316;10.650;2023-05-07T14:21:34;25.10;74.10
9668;DHT22;4872;48.316;10.650;2023-05-07T14:24:01;25.10;72.80
9668;DHT22;4872;48.316;10.650;2023-05-07T14:26:27;25.20;73.00
9668;DHT22;4872;48.316;10.650;2023-05-07T14:28:54;25.10;73.10
9668;DHT22;4872;48.316;10.650;2023-05-07T14:31:25;24.90;72.60
9668;DHT22;4872;48.316;10.650;2023-05-07T14:33:52;24.70;72.60
9668;DHT22;4872;48.316;10.650;2023-05-07T14:36:19;24.60;72.70
9668;DHT22;4872;48.316;10.650;2023-05-07T14:38:48;24.50;72.20
9668;DHT22;4872;48.316;10.650;2023-05-07T14:41:15;24.30;72.80
9668;DHT22;4872;48.316;10.650;2023-05-07T14:43:41;24.20;75.90
9668;DHT22;4872;48.316;10.650;2023-05-07T14:46:09;24.20;76.40
9668;DHT22;4872;48.316;10.650;2023-05-07T14:48:37;24.10;75.70
9668;DHT22;4872;48.316;10.650;2023-05-07T14:51:04;24.20;75.40
9668;DHT22;4872;48.316;10.650;2023-05-07T14:53:31;24.60;74.10
9668;DHT22;4872;48.316;10.650;2023-05-07T14:55:58;24.20;75.00
9668;DHT22;4872;48.316;10.650;2023-05-07T14:58:25;23.90;73.40
9668;DHT22;4872;48.316;10.650;2023-05-07T15:00:52;24.60;73.60
9668;DHT22;4872;48.316;10.650;2023-05-07T15:03:19;23.70;75.50
9668;DHT22;4872;48.316;10.650;2023-05-07T15:05:48;24.20;76.80
9668;DHT22;4872;48.316;10.650;2023-05-07T15:08:16;23.40;76.60
9668;DHT22;4872;48.316;10.650;2023-05-07T15:10:43;23.20;77.20
9668;DHT22;4872;48.316;10.650;2023-05-07T15:13:11;23.10;77.30
9668;DHT22;4872;48.316;10.650;2023-05-07T15:15:38;23.00;76.90
9668;DHT22;4872;48.316;10.650;2023-05-07T15:18:05;22.90;78.00
9668;DHT22;4872;48.316;10.650;2023-05-07T15:20:32;23.50;79.00
9668;DHT22;4872;48.316;10.650;2023-05-07T15:23:00;22.60;77.40
9668;DHT22;4872;48.316;10.650;2023-05-07T15:25:28;22.50;76.10
9668;DHT22;4872;48.316;10.650;2023-05-07T15:27:56;22.40;76.00
9668;DHT22;4872;48.316;10.650;2023-05-07T15:30:23;23.30;77.10
9668;DHT22;4872;48.316;10.650;2023-05-07T15:32:50;22.20;76.20
9668;DHT22;4872;48.316;10.650;2023-05-07T15:35:17;22.10;76.60
9668;DHT22;4872;48.316;10.650;2023-05-07T15:37:47;22.00;77.00
9668;DHT22;4872;48.316;10.650;2023-05-07T15:40:16;21.90;77.40
9668;DHT22;4872;48.316;10.650;2023-05-07T15:42:45;21.70;76.70
9668;DHT22;4872;48.316;10.650;2023-05-07T15:45:12;21.60;77.60
9668;DHT22;4872;48.316;10.650;2023-05-07T15:47:39;21.60;78.50
9668;DHT22;4872;48.316;10.650;2023-05-07T15:50:06;21.50;78.80
9668;DHT22;4872;48.316;10.650;2023-05-07T15:52:33;21.40;78.20
9668;DHT22;4872;48.316;10.650;2023-05-07T15:55:00;21.30;78.30
9668;DHT22;4872;48.316;10.650;2023-05-07T15:57:29;21.20;78.30
9668;DHT22;4872;48.316;10.650;2023-05-07T15:59:56;21.10;79.20
9668;DHT22;4872;48.316;10.650;2023-05-07T16:02:23;21.00;79.30
9668;DHT22;4872;48.316;10.650;2023-05-07T16:04:50;20.90;80.80
9668;DHT22;4872;48.316;10.650;2023-05-07T16:07:17;20.80;81.80
9668;DHT22;4872;48.316;10.650;2023-05-07T16:09:44;20.90;82.40
9668;DHT22;4872;48.316;10.650;2023-05-07T16:12:11;20.70;81.60
9668;DHT22;4872;48.316;10.650;2023-05-07T16:14:39;20.70;81.50
9668;DHT22;4872;48.316;10.650;2023-05-07T16:17:06;21.30;83.20
9668;DHT22;4872;48.316;10.650;2023-05-07T16:19:33;20.60;84.20
9668;DHT22;4872;48.316;10.650;2023-05-07T16:22:00;22.00;86.10
9668;DHT22;4872;48.316;10.650;2023-05-07T16:24:27;20.60;85.10
9668;DHT22;4872;48.316;10.650;2023-05-07T16:26:53;20.50;85.90
9668;DHT22;4872;48.316;10.650;2023-05-07T16:29:20;20.40;85.80
9668;DHT22;4872;48.316;10.650;2023-05-07T16:31:48;20.50;86.00
9668;DHT22;4872;48.316;10.650;2023-05-07T16:34:15;20.50;85.70
9668;DHT22;4872;48.316;10.650;2023-05-07T16:36:42;20.60;85.20
9668;DHT22;4872;48.316;10.650;2023-05-07T16:39:09;20.50;84.40
9668;DHT22;4872;48.316;10.650;2023-05-07T16:41:35;20.90;84.80
9668;DHT22;4872;48.316;10.650;2023-05-07T16:44:02;20.40;84.40
9668;DHT22;4872;48.316;10.650;2023-05-07T16:46:29;20.40;84.70
9668;DHT22;4872;48.316;10.650;2023-05-07T16:48:57;20.40;84.80
9668;DHT22;4872;48.316;10.650;2023-05-07T16:51:24;20.40;85.30
9668;DHT22;4872;48.316;10.650;2023-05-07T16:53:52;20.30;85.40
9668;DHT22;4872;48.316;10.650;2023-05-07T16:56:19;20.60;86.80
9668;DHT22;4872;48.316;10.650;2023-05-07T16:58:46;20.20;87.00
9668;DHT22;4872;48.316;10.650;2023-05-07T17:01:13;20.20;86.90
9668;DHT22;4872;48.316;10.650;2023-05-07T17:03:40;20.10;87.10
9668;DHT22;4872;48.316;10.650;2023-05-07T17:06:09;20.00;87.70
9668;DHT22;4872;48.316;10.650;2023-05-07T17:08:39;20.00;87.30
9668;DHT22;4872;48.316;10.650;2023-05-07T17:11:06;20.50;88.00
9668;DHT22;4872;48.316;10.650;2023-05-07T17:13:33;19.90;88.00
9668;DHT22;4872;48.316;10.650;2023-05-07T17:16:00;19.80;87.90
9668;DHT22;4872;48.316;10.650;2023-05-07T17:18:26;19.80;87.70
9668;DHT22;4872;48.316;10.650;2023-05-07T17:20:53;19.80;88.20
9668;DHT22;4872;48.316;10.650;2023-05-07T17:23:21;19.70;88.70
9668;DHT22;4872;48.316;10.650;2023-05-07T17:25:48;19.70;88.40
9668;DHT22;4872;48.316;10.650;2023-05-07T17:28:15;19.70;88.80
9668;DHT22;4872;48.316;10.650;2023-05-07T17:30:41;19.60;88.30
9668;DHT22;4872;48.316;10.650;2023-05-07T17:33:08;19.60;88.00
9668;DHT22;4872;48.316;10.650;2023-05-07T17:35:35;20.10;88.50
9668;DHT22;4872;48.316;10.650;2023-05-07T17:38:01;19.80;89.20
9668;DHT22;4872;48.316;10.650;2023-05-07T17:40:30;20.90;90.20
9668;DHT22;4872;48.316;10.650;2023-05-07T17:42:56;19.40;89.30
9668;DHT22;4872;48.316;10.650;2023-05-07T17:45:23;19.40;90.00
9668;DHT22;4872;48.316;10.650;2023-05-07T17:47:50;20.10;90.10
9668;DHT22;4872;48.316;10.650;2023-05-07T17:50:18;19.40;89.50
9668;DHT22;4872;48.316;10.650;2023-05-07T17:52:45;19.10;89.00
9668;DHT22;4872;48.316;10.650;2023-05-07T17:55:13;18.90;90.30
9668;DHT22;4872;48.316;10.650;2023-05-07T17:57:41;18.80;91.00
9668;DHT22;4872;48.316;10.650;2023-05-07T18:00:09;18.60;92.10
9668;DHT22;4872;48.316;10.650;2023-05-07T18:02:36;18.20;92.70
9668;DHT22;4872;48.316;10.650;2023-05-07T18:05:03;17.70;93.70
9668;DHT22;4872;48.316;10.650;2023-05-07T18:07:29;17.50;94.50
9668;DHT22;4872;48.316;10.650;2023-05-07T18:09:56;18.00;95.40
9668;DHT22;4872;48.316;10.650;2023-05-07T18:12:23;17.50;96.00
9668;DHT22;4872;48.316;10.650;2023-05-07T18:14:51;17.20;96.70
9668;DHT22;4872;48.316;10.650;2023-05-07T18:17:18;17.10;97.20
9668;DHT22;4872;48.316;10.650;2023-05-07T18:19:48;16.80;98.00
9668;DHT22;4872;48.316;10.650;2023-05-07T18:22:15;16.70;98.70
9668;DHT22;4872;48.316;10.650;2023-05-07T18:24:42;16.60;99.50
9668;DHT22;4872;48.316;10.650;2023-05-07T18:27:08;16.30;99.90
9668;DHT22;4872;48.316;10.650;2023-05-07T18:29:35;16.10;99.90
9668;DHT22;4872;48.316;10.650;2023-05-07T18:32:03;15.90;99.90
9668;DHT22;4872;48.316;10.650;2023-05-07T18:34:30;15.80;99.90
9668;DHT22;4872;48.316;10.650;2023-05-07T18:36:57;15.70;99.90
9668;DHT22;4872;48.316;10.650;2023-05-07T18:39:23;15.70;99.90
9668;DHT22;4872;48.316;10.650;2023-05-07T18:41:50;15.60;99.90
9668;DHT22;4872;48.316;10.650;2023-05-07T18:44:17;15.70;99.90
9668;DHT22;4872;48.316;10.650;2023-05-07T18:46:44;15.80;99.90
9668;DHT22;4872;48.316;10.650;2023-05-07T18:49:13;15.80;99.90
9668;DHT22;4872;48.316;10.650;2023-05-07T18:51:40;15.90;99.90
9668;DHT22;4872;48.316;10.650;2023-05-07T18:54:07;15.90;99.90
9668;DHT22;4872;48.316;10.650;2023-05-07T18:56:34;16.00;99.90
9668;DHT22;4872;48.316;10.650;2023-05-07T18:59:00;16.10;99.90
9668;DHT22;4872;48.316;10.650;2023-05-07T19:01:27;16.10;99.90
9668;DHT22;4872;48.316;10.650;2023-05-07T19:03:54;16.70;99.90
9668;DHT22;4872;48.316;10.650;2023-05-07T19:06:22;16.20;99.90
9668;DHT22;4872;48.316;10.650;2023-05-07T19:08:50;16.20;99.90
9668;DHT22;4872;48.316;10.650;2023-05-07T19:11:17;16.20;99.90
9668;DHT22;4872;48.316;10.650;2023-05-07T19:13:44;16.00;99.90
9668;DHT22;4872;48.316;10.650;2023-05-07T19:16:10;15.80;99.90
9668;DHT22;4872;48.316;10.650;2023-05-07T19:18:38;16.00;99.90
9668;DHT22;4872;48.316;10.650;2023-05-07T19:21:06;15.80;99.90
9668;DHT22;4872;48.316;10.650;2023-05-07T19:23:34;15.60;99.90
9668;DHT22;4872;48.316;10.650;2023-05-07T19:26:06;15.70;99.90
9668;DHT22;4872;48.316;10.650;2023-05-07T19:28:33;15.70;99.90
9668;DHT22;4872;48.316;10.650;2023-05-07T19:31:00;15.90;99.90
9668;DHT22;4872;48.316;10.650;2023-05-07T19:33:26;15.90;99.90
9668;DHT22;4872;48.316;10.650;2023-05-07T19:35:54;16.00;99.90
9668;DHT22;4872;48.316;10.650;2023-05-07T19:38:23;16.30;99.90
9668;DHT22;4872;48.316;10.650;2023-05-07T19:40:51;16.20;99.90
9668;DHT22;4872;48.316;10.650;2023-05-07T19:43:18;16.20;99.90
9668;DHT22;4872;48.316;10.650;2023-05-07T19:45:45;16.00;99.90
9668;DHT22;4872;48.316;10.650;2023-05-07T19:48:13;15.80;99.90
9668;DHT22;4872;48.316;10.650;2023-05-07T19:50:40;15.50;99.90
9668;DHT22;4872;48.316;10.650;2023-05-07T19:53:07;15.20;99.90